Weather reports worldwide

Advertisment
Ayamonte, Spain (8381): temperature & dewpoint: 19.09.2020 03:00:00 - 25.09.2020 03:00:00 (CEST)Ayamonte, Spain (8381): wind speed & gusts: 19.09.2020 03:00:00 - 25.09.2020 03:00:00 (CEST)Ayamonte, Spain (8381): wind direction: 19.09.2020 03:00:00 - 25.09.2020 03:00:00 (CEST)Ayamonte, Spain (8381): reduced air pressure: 19.09.2020 03:00:00 - 25.09.2020 03:00:00 (CEST)Ayamonte, Spain (8381): precipitation: 19.09.2020 03:00:00 - 25.09.2020 03:00:00 (CEST)
Date & Time tt [°C] td [°C] ff [km/h] ff [kn] fx [km/h] fx [kn] dd ppp [hPa] rr [mm]
25.09.2020 03:00:00 - - - - - - - - -
25.09.2020 02:00:00 22,6 14,7 10 5 23 12 NNW 1019,5 -
25.09.2020 01:00:00 23,2 16,0 7 4 22 12 NNW 1019,4 0,0
25.09.2020 00:00:00 23,8 16,0 6 3 17 9 N 1019,5 0,0
24.09.2020 23:00:00 - - - - - - - - -
24.09.2020 22:00:00 - - - - - - - - -
24.09.2020 21:00:00 - - - - - - - - -
24.09.2020 20:00:00 26,9 13,9 6 3 21 11 NNW 1017,3 -
24.09.2020 19:00:00 - - - - - - - - -
24.09.2020 18:00:00 28,4 14,2 6 3 16 8 SW 1016,7 0,0
24.09.2020 17:00:00 28,0 15,0 8 4 17 9 SSW 1016,5 0,0
24.09.2020 16:00:00 - - - - - - - - -
24.09.2020 15:00:00 28,5 14,7 9 5 16 8 S 1016,5 0,0
24.09.2020 14:00:00 27,3 16,9 5 3 13 7 S 1017,0 -
24.09.2020 13:00:00 26,2 16,1 7 4 14 8 S 1017,2 0,0
24.09.2020 12:00:00 25,7 16,2 3 2 8 4 NW 1017,0 0,0
24.09.2020 11:00:00 25,0 16,1 1 1 8 4 N 1016,7 0,0
24.09.2020 10:00:00 22,9 17,1 1 1 11 6 W 1016,3 0,0
24.09.2020 09:00:00 21,2 16,4 2 1 11 6 NNW 1015,6 0,0
24.09.2020 08:00:00 21,1 16,3 4 2 14 8 NNW 1015,1 -
24.09.2020 07:00:00 21,2 16,1 4 2 14 7 NNW 1015,0 0,0
24.09.2020 06:00:00 - - - - - - - - -
24.09.2020 05:00:00 20,8 16,4 1 0 5 3 NNE 1014,2 0,0
24.09.2020 04:00:00 - - - - - - - - -
24.09.2020 03:00:00 21,0 15,8 0 0 6 4 N 1015,1 0,0
24.09.2020 02:00:00 21,1 16,3 1 0 6 3 N 1015,3 -
24.09.2020 01:00:00 20,7 16,3 1 0 4 2 NW 1015,8 0,0
24.09.2020 00:00:00 - - - - - - - - -
23.09.2020 23:00:00 - - - - - - - - -
23.09.2020 22:00:00 - - - - - - - - -
23.09.2020 21:00:00 23,4 16,5 5 3 20 11 SW 1014,4 0,0
23.09.2020 20:00:00 23,4 17,1 11 6 21 11 SW 1014,2 -
23.09.2020 19:00:00 24,1 16,9 13 7 23 12 SW 1014,3 0,0
23.09.2020 18:00:00 25,1 17,5 12 7 21 12 SW 1014,2 0,0
23.09.2020 17:00:00 24,8 16,5 13 7 21 11 SSW 1014,1 0,0
23.09.2020 16:00:00 25,9 16,1 13 7 23 12 SW 1014,4 0,0
23.09.2020 15:00:00 26,3 16,2 13 7 22 12 SSW 1014,9 0,0
23.09.2020 14:00:00 25,9 15,9 10 6 23 12 SW 1015,1 -
23.09.2020 13:00:00 24,9 15,5 14 7 24 13 SW 1015,9 0,0
23.09.2020 12:00:00 26,0 16,6 10 5 18 10 WSW 1015,8 0,0
23.09.2020 11:00:00 23,6 15,3 6 3 12 7 SSW 1015,5 0,0
23.09.2020 10:00:00 - - - - - - - - -
23.09.2020 09:00:00 18,7 14,8 0 0 2 1 N 1014,6 0,0
23.09.2020 08:00:00 18,8 14,5 0 0 4 2 NNW 1014,3 -
23.09.2020 07:00:00 19,1 14,8 0 0 4 2 NE 1013,9 0,0
23.09.2020 06:00:00 19,5 15,0 0 0 4 2 S 1014,1 0,0
23.09.2020 05:00:00 - - - - - - - - -
23.09.2020 04:00:00 19,3 14,3 0 0 5 3 WSW 1015,0 0,0
23.09.2020 03:00:00 - - - - - - - - -
23.09.2020 02:00:00 20,7 13,9 3 2 10 6 WNW 1014,9 -
23.09.2020 01:00:00 - - - - - - - - -
23.09.2020 00:00:00 22,5 13,6 8 4 18 10 NNW 1015,4 0,0
22.09.2020 23:00:00 21,9 15,5 2 1 13 7 NW 1015,2 0,0
22.09.2020 22:00:00 22,7 15,5 7 4 18 10 WSW 1014,7 0,0
22.09.2020 21:00:00 23,2 15,3 10 5 22 12 WSW 1014,0 0,0
22.09.2020 20:00:00 24,2 14,6 14 8 26 14 WSW 1013,9 -
22.09.2020 19:00:00 - - - - - - - - -
22.09.2020 18:00:00 25,3 14,7 16 9 29 15 SW 1014,0 0,0
22.09.2020 17:00:00 - - - - - - - - -
22.09.2020 16:00:00 27,7 13,9 16 9 26 14 SW 1015,1 0,0
22.09.2020 15:00:00 25,9 14,0 13 7 22 12 SW 1015,3 0,0
22.09.2020 14:00:00 28,6 12,4 3 2 14 7 NW 1016,0 -
22.09.2020 13:00:00 26,3 12,0 5 3 16 9 NNW 1016,4 0,0
22.09.2020 12:00:00 25,3 13,2 6 4 18 10 NNW 1016,3 0,0
22.09.2020 11:00:00 22,3 12,2 6 4 18 10 NNW 1016,5 0,0
22.09.2020 10:00:00 - - - - - - - - -
22.09.2020 09:00:00 19,7 11,7 8 4 23 12 NNW 1016,0 0,0
22.09.2020 08:00:00 19,6 11,7 10 5 22 12 NNW 1015,5 -
22.09.2020 07:00:00 20,0 11,8 5 3 17 9 N 1015,6 0,0
22.09.2020 06:00:00 20,2 11,7 7 4 17 9 NNW 1015,2 0,0
22.09.2020 05:00:00 - - - - - - - - -
22.09.2020 04:00:00 - - - - - - - - -
22.09.2020 03:00:00 21,5 11,8 9 5 22 12 NNW 1016,3 0,0
22.09.2020 02:00:00 22,2 12,1 10 6 23 13 NNW 1016,4 -
22.09.2020 01:00:00 22,9 12,5 12 6 23 12 NNW 1016,6 0,0
22.09.2020 00:00:00 22,8 12,4 9 5 18 10 NNW 1016,9 0,0
21.09.2020 23:00:00 21,3 14,4 2 1 6 3 NW 1016,6 0,0
21.09.2020 22:00:00 22,8 15,2 3 2 14 8 W 1016,3 0,0
21.09.2020 21:00:00 23,5 13,9 8 4 24 13 W 1015,8 0,0
21.09.2020 20:00:00 24,9 12,8 11 6 26 14 WSW 1015,7 -
21.09.2020 19:00:00 26,2 12,6 14 7 27 15 WSW 1015,9 0,0
21.09.2020 18:00:00 27,8 12,5 13 7 24 13 SW 1016,1 0,0
21.09.2020 17:00:00 28,3 13,5 13 7 28 15 WSW 1016,3 0,0
21.09.2020 16:00:00 30,0 11,4 6 3 16 9 N 1016,5 0,0
21.09.2020 15:00:00 28,9 11,4 6 3 19 10 NNW 1017,1 0,0
21.09.2020 14:00:00 28,1 12,0 8 5 21 11 NW 1017,6 -
21.09.2020 13:00:00 - - - - - - - - -
21.09.2020 12:00:00 24,3 12,5 8 4 20 11 NNW 1018,4 0,0
21.09.2020 11:00:00 - - - - - - - - -
21.09.2020 10:00:00 20,9 14,0 9 5 18 10 NNW 1018,0 0,0
21.09.2020 09:00:00 20,5 13,9 3 2 16 9 N 1017,4 0,0
21.09.2020 08:00:00 20,5 13,9 7 4 17 9 NNW 1017,5 -
21.09.2020 07:00:00 20,8 13,9 5 3 21 11 NNW 1017,2 0,0
21.09.2020 06:00:00 20,9 14,0 8 4 18 10 NNW 1016,9 0,0
21.09.2020 05:00:00 21,0 13,9 9 5 20 11 NNW 1017,1 0,0
21.09.2020 04:00:00 21,1 13,6 9 5 21 11 NNW 1017,1 0,0
21.09.2020 03:00:00 21,3 13,3 10 5 23 12 NNW 1017,6 0,0
21.09.2020 02:00:00 21,7 13,4 11 6 22 12 NNW 1017,7 -
21.09.2020 01:00:00 22,3 13,1 8 5 20 11 NNW 1017,9 0,0
21.09.2020 00:00:00 - - - - - - - - -
20.09.2020 23:00:00 - - - - - - - - -
20.09.2020 22:00:00 21,9 17,3 0 0 13 7 W 1017,8 0,0
20.09.2020 21:00:00 22,6 17,3 7 4 22 12 WSW 1017,5 0,0
20.09.2020 20:00:00 23,3 16,3 12 7 25 14 WSW 1017,3 -
20.09.2020 19:00:00 24,3 15,5 15 8 28 15 WSW 1017,2 0,0
20.09.2020 18:00:00 25,0 15,3 14 8 27 14 WSW 1017,3 0,0
20.09.2020 17:00:00 - - - - - - - - -
20.09.2020 16:00:00 - - - - - - - - -
20.09.2020 15:00:00 25,6 14,4 11 6 19 11 SSW 1018,6 0,0
20.09.2020 14:00:00 25,6 13,8 12 7 18 10 SSW 1019,3 -
20.09.2020 13:00:00 24,8 13,7 8 5 16 9 S 1019,5 0,0
20.09.2020 12:00:00 - - - - - - - - -
20.09.2020 11:00:00 - - - - - - - - -
20.09.2020 10:00:00 - - - - - - - - -
20.09.2020 09:00:00 18,2 15,3 0 0 2 1 N 1018,8 0,0
20.09.2020 08:00:00 17,5 14,6 0 0 9 5 N 1018,5 -
20.09.2020 07:00:00 17,3 14,2 0 0 3 2 NNE 1018,2 0,0
20.09.2020 06:00:00 17,5 14,2 0 0 3 2 NE 1018,0 0,0
20.09.2020 05:00:00 - - - - - - - - -
20.09.2020 04:00:00 - - - - - - - - -
20.09.2020 03:00:00 18,5 13,4 1 1 5 3 W 1018,9 0,0
20.09.2020 02:00:00 19,7 13,9 3 1 7 4 NNW 1019,0 -
20.09.2020 01:00:00 19,8 13,8 3 2 7 4 WNW 1019,2 0,0
20.09.2020 00:00:00 - - - - - - - - -
19.09.2020 23:00:00 - - - - - - - - -
19.09.2020 22:00:00 21,8 14,2 0 0 11 6 WNW 1017,9 0,0
19.09.2020 21:00:00 22,6 14,4 8 4 27 14 W 1017,1 0,0
19.09.2020 20:00:00 23,1 15,4 16 9 35 19 WSW 1016,8 -
19.09.2020 19:00:00 24,2 14,6 21 11 38 20 SW 1016,4 0,0
19.09.2020 18:00:00 25,9 14,7 19 11 39 21 WSW 1016,0 0,0
19.09.2020 17:00:00 25,6 15,3 21 12 38 21 WSW 1016,3 0,0
19.09.2020 16:00:00 - - - - - - - - -
19.09.2020 15:00:00 26,2 16,1 16 9 30 16 SW 1017,0 0,0
19.09.2020 14:00:00 25,3 15,9 14 8 26 14 SW 1017,5 -
19.09.2020 13:00:00 - - - - - - - - -
19.09.2020 12:00:00 24,6 15,0 9 5 15 8 SSW 1017,8 0,0
19.09.2020 11:00:00 23,7 15,7 6 3 13 7 WSW 1017,3 0,0
19.09.2020 10:00:00 22,8 16,8 5 3 9 5 WSW 1016,7 0,0
19.09.2020 09:00:00 21,1 17,1 2 1 8 4 WSW 1016,2 0,0
19.09.2020 08:00:00 20,7 16,1 6 3 12 6 SSW 1015,5 -
19.09.2020 07:00:00 20,5 16,7 2 1 5 3 WSW 1015,2 0,0
19.09.2020 06:00:00 20,2 16,5 0 0 8 5 NW 1015,0 0,0
19.09.2020 05:00:00 - - - - - - - - -
19.09.2020 04:00:00 - - - - - - - - -
19.09.2020 03:00:00 20,9 16,3 8 5 25 14 W 1015,1 0,0

tt = temperature
td = dewpoint
ff = wind speed
fx = gusts
dd = wind direction
ppp = reduced air pressure
rr = precipitation

Next stations